sensor_id;sensor_type;location;lat;lon;timestamp;P1;durP1;ratioP1;P2;durP2;ratioP2
20910;SDS011;10615;42.702;23.314;2024-02-15T00:00:52;11.68;;;7.22;;
20910;SDS011;10615;42.702;23.314;2024-02-15T00:01:53;9.32;;;7.30;;
20910;SDS011;10615;42.702;23.314;2024-02-15T00:02:54;9.60;;;7.10;;
20910;SDS011;10615;42.702;23.314;2024-02-15T00:03:55;10.43;;;7.78;;
20910;SDS011;10615;42.702;23.314;2024-02-15T00:04:57;8.13;;;6.80;;
20910;SDS011;10615;42.702;23.314;2024-02-15T00:05:58;9.52;;;7.65;;
20910;SDS011;10615;42.702;23.314;2024-02-15T00:06:59;10.38;;;7.47;;
20910;SDS011;10615;42.702;23.314;2024-02-15T00:08:00;8.38;;;7.13;;
20910;SDS011;10615;42.702;23.314;2024-02-15T00:09:00;8.57;;;7.30;;
20910;SDS011;10615;42.702;23.314;2024-02-15T00:10:02;8.82;;;7.22;;
20910;SDS011;10615;42.702;23.314;2024-02-15T00:11:03;10.68;;;6.95;;
20910;SDS011;10615;42.702;23.314;2024-02-15T00:12:04;8.70;;;6.88;;
20910;SDS011;10615;42.702;23.314;2024-02-15T00:13:05;8.70;;;7.00;;
20910;SDS011;10615;42.702;23.314;2024-02-15T00:14:06;10.32;;;7.20;;
20910;SDS011;10615;42.702;23.314;2024-02-15T00:15:08;10.65;;;6.75;;
20910;SDS011;10615;42.702;23.314;2024-02-15T00:16:13;10.32;;;6.82;;
20910;SDS011;10615;42.702;23.314;2024-02-15T00:17:14;8.75;;;7.07;;
20910;SDS011;10615;42.702;23.314;2024-02-15T00:18:15;9.15;;;7.38;;
20910;SDS011;10615;42.702;23.314;2024-02-15T00:19:16;8.93;;;6.90;;
20910;SDS011;10615;42.702;23.314;2024-02-15T00:20:17;10.52;;;6.80;;
20910;SDS011;10615;42.702;23.314;2024-02-15T00:21:18;8.23;;;6.28;;
20910;SDS011;10615;42.702;23.314;2024-02-15T00:22:19;7.82;;;6.78;;
20910;SDS011;10615;42.702;23.314;2024-02-15T00:23:21;11.52;;;6.70;;
20910;SDS011;10615;42.702;23.314;2024-02-15T00:24:22;8.90;;;6.70;;
20910;SDS011;10615;42.702;23.314;2024-02-15T00:25:24;9.30;;;7.35;;
20910;SDS011;10615;42.702;23.314;2024-02-15T00:26:26;9.60;;;6.68;;
20910;SDS011;10615;42.702;23.314;2024-02-15T00:27:26;8.23;;;6.65;;
20910;SDS011;10615;42.702;23.314;2024-02-15T00:28:27;9.60;;;6.82;;
20910;SDS011;10615;42.702;23.314;2024-02-15T00:29:28;15.48;;;9.52;;
20910;SDS011;10615;42.702;23.314;2024-02-15T00:30:29;11.68;;;8.00;;
20910;SDS011;10615;42.702;23.314;2024-02-15T00:31:31;11.10;;;7.68;;
20910;SDS011;10615;42.702;23.314;2024-02-15T00:32:32;10.32;;;6.88;;
20910;SDS011;10615;42.702;23.314;2024-02-15T00:33:34;7.88;;;6.47;;
20910;SDS011;10615;42.702;23.314;2024-02-15T00:34:37;10.02;;;7.65;;
20910;SDS011;10615;42.702;23.314;2024-02-15T00:35:38;10.13;;;7.70;;
20910;SDS011;10615;42.702;23.314;2024-02-15T00:36:41;9.57;;;7.40;;
20910;SDS011;10615;42.702;23.314;2024-02-15T00:37:44;8.77;;;6.80;;
20910;SDS011;10615;42.702;23.314;2024-02-15T00:38:45;10.70;;;7.85;;
20910;SDS011;10615;42.702;23.314;2024-02-15T00:39:46;11.27;;;7.65;;
20910;SDS011;10615;42.702;23.314;2024-02-15T00:40:46;9.45;;;7.65;;
20910;SDS011;10615;42.702;23.314;2024-02-15T00:41:47;11.85;;;7.97;;
20910;SDS011;10615;42.702;23.314;2024-02-15T00:42:48;12.88;;;8.45;;
20910;SDS011;10615;42.702;23.314;2024-02-15T00:43:49;11.10;;;7.63;;
20910;SDS011;10615;42.702;23.314;2024-02-15T00:44:50;11.68;;;7.22;;
20910;SDS011;10615;42.702;23.314;2024-02-15T00:45:51;9.98;;;7.30;;
20910;SDS011;10615;42.702;23.314;2024-02-15T00:46:51;9.40;;;6.90;;
20910;SDS011;10615;42.702;23.314;2024-02-15T00:47:52;10.05;;;7.07;;
20910;SDS011;10615;42.702;23.314;2024-02-15T00:48:54;10.63;;;6.88;;
20910;SDS011;10615;42.702;23.314;2024-02-15T00:49:55;8.43;;;7.18;;
20910;SDS011;10615;42.702;23.314;2024-02-15T00:50:56;9.00;;;6.65;;
20910;SDS011;10615;42.702;23.314;2024-02-15T00:51:58;8.05;;;6.55;;
20910;SDS011;10615;42.702;23.314;2024-02-15T00:52:58;10.95;;;7.68;;
20910;SDS011;10615;42.702;23.314;2024-02-15T00:53:59;8.60;;;6.50;;
20910;SDS011;10615;42.702;23.314;2024-02-15T00:55:01;10.05;;;7.43;;
20910;SDS011;10615;42.702;23.314;2024-02-15T00:56:01;9.30;;;7.10;;
20910;SDS011;10615;42.702;23.314;2024-02-15T00:57:02;9.73;;;7.05;;
20910;SDS011;10615;42.702;23.314;2024-02-15T00:58:03;8.30;;;7.15;;
20910;SDS011;10615;42.702;23.314;2024-02-15T00:59:05;11.18;;;7.25;;
20910;SDS011;10615;42.702;23.314;2024-02-15T01:00:07;11.18;;;7.35;;
20910;SDS011;10615;42.702;23.314;2024-02-15T01:01:09;10.85;;;7.35;;
20910;SDS011;10615;42.702;23.314;2024-02-15T01:02:10;10.82;;;6.95;;
20910;SDS011;10615;42.702;23.314;2024-02-15T01:03:12;8.77;;;7.00;;
20910;SDS011;10615;42.702;23.314;2024-02-15T01:04:13;9.38;;;7.10;;
20910;SDS011;10615;42.702;23.314;2024-02-15T01:05:15;11.50;;;7.75;;
20910;SDS011;10615;42.702;23.314;2024-02-15T01:06:15;8.30;;;6.78;;
20910;SDS011;10615;42.702;23.314;2024-02-15T01:07:17;10.25;;;7.03;;
20910;SDS011;10615;42.702;23.314;2024-02-15T01:08:17;9.43;;;6.78;;
20910;SDS011;10615;42.702;23.314;2024-02-15T01:09:21;12.98;;;7.30;;
20910;SDS011;10615;42.702;23.314;2024-02-15T01:10:22;10.57;;;6.97;;
20910;SDS011;10615;42.702;23.314;2024-02-15T01:11:24;8.85;;;7.03;;
20910;SDS011;10615;42.702;23.314;2024-02-15T01:12:25;8.95;;;7.20;;
20910;SDS011;10615;42.702;23.314;2024-02-15T01:13:26;8.82;;;7.07;;
20910;SDS011;10615;42.702;23.314;2024-02-15T01:14:27;9.98;;;7.55;;
20910;SDS011;10615;42.702;23.314;2024-02-15T01:15:30;9.70;;;7.20;;
20910;SDS011;10615;42.702;23.314;2024-02-15T01:16:31;8.57;;;7.07;;
20910;SDS011;10615;42.702;23.314;2024-02-15T01:17:32;9.52;;;7.43;;
20910;SDS011;10615;42.702;23.314;2024-02-15T01:18:32;9.95;;;7.03;;
20910;SDS011;10615;42.702;23.314;2024-02-15T01:19:33;10.07;;;6.93;;
20910;SDS011;10615;42.702;23.314;2024-02-15T01:20:34;10.48;;;7.15;;
20910;SDS011;10615;42.702;23.314;2024-02-15T01:21:36;8.65;;;7.03;;
20910;SDS011;10615;42.702;23.314;2024-02-15T01:22:37;10.98;;;7.43;;
20910;SDS011;10615;42.702;23.314;2024-02-15T01:23:37;11.13;;;6.90;;
20910;SDS011;10615;42.702;23.314;2024-02-15T01:24:39;11.35;;;6.90;;
20910;SDS011;10615;42.702;23.314;2024-02-15T01:25:40;8.98;;;7.32;;
20910;SDS011;10615;42.702;23.314;2024-02-15T01:26:41;8.75;;;6.43;;
20910;SDS011;10615;42.702;23.314;2024-02-15T01:27:41;9.80;;;7.32;;
20910;SDS011;10615;42.702;23.314;2024-02-15T01:28:42;12.57;;;7.45;;
20910;SDS011;10615;42.702;23.314;2024-02-15T01:29:43;9.70;;;6.90;;
20910;SDS011;10615;42.702;23.314;2024-02-15T01:30:44;8.73;;;6.82;;
20910;SDS011;10615;42.702;23.314;2024-02-15T01:31:46;8.93;;;7.07;;
20910;SDS011;10615;42.702;23.314;2024-02-15T01:32:46;9.30;;;6.75;;
20910;SDS011;10615;42.702;23.314;2024-02-15T01:33:47;9.65;;;7.28;;
20910;SDS011;10615;42.702;23.314;2024-02-15T01:34:48;9.43;;;7.38;;
20910;SDS011;10615;42.702;23.314;2024-02-15T01:35:51;8.82;;;6.70;;
20910;SDS011;10615;42.702;23.314;2024-02-15T01:36:52;9.00;;;6.82;;
20910;SDS011;10615;42.702;23.314;2024-02-15T01:37:52;8.82;;;7.07;;
20910;SDS011;10615;42.702;23.314;2024-02-15T01:38:53;8.45;;;6.70;;
20910;SDS011;10615;42.702;23.314;2024-02-15T01:39:54;8.95;;;6.80;;
20910;SDS011;10615;42.702;23.314;2024-02-15T01:40:54;8.90;;;7.00;;
20910;SDS011;10615;42.702;23.314;2024-02-15T01:41:55;9.25;;;7.22;;
20910;SDS011;10615;42.702;23.314;2024-02-15T01:42:56;11.30;;;7.68;;
20910;SDS011;10615;42.702;23.314;2024-02-15T01:43:58;11.88;;;6.93;;
20910;SDS011;10615;42.702;23.314;2024-02-15T01:44:59;8.85;;;7.20;;
20910;SDS011;10615;42.702;23.314;2024-02-15T01:46:00;8.85;;;7.07;;
20910;SDS011;10615;42.702;23.314;2024-02-15T01:47:04;12.60;;;6.95;;
20910;SDS011;10615;42.702;23.314;2024-02-15T01:48:05;10.27;;;7.00;;
20910;SDS011;10615;42.702;23.314;2024-02-15T01:49:06;8.23;;;7.07;;
20910;SDS011;10615;42.702;23.314;2024-02-15T01:50:07;12.57;;;7.38;;
20910;SDS011;10615;42.702;23.314;2024-02-15T01:51:12;7.53;;;6.32;;
20910;SDS011;10615;42.702;23.314;2024-02-15T01:52:16;9.65;;;6.55;;
20910;SDS011;10615;42.702;23.314;2024-02-15T01:53:17;9.43;;;6.97;;
20910;SDS011;10615;42.702;23.314;2024-02-15T01:54:18;9.70;;;7.22;;
20910;SDS011;10615;42.702;23.314;2024-02-15T01:55:20;9.95;;;7.15;;
20910;SDS011;10615;42.702;23.314;2024-02-15T01:56:21;9.68;;;7.05;;
20910;SDS011;10615;42.702;23.314;2024-02-15T01:57:25;10.38;;;6.97;;
20910;SDS011;10615;42.702;23.314;2024-02-15T01:58:27;10.18;;;7.05;;
20910;SDS011;10615;42.702;23.314;2024-02-15T01:59:31;10.82;;;7.50;;
20910;SDS011;10615;42.702;23.314;2024-02-15T02:00:32;10.32;;;7.00;;
20910;SDS011;10615;42.702;23.314;2024-02-15T02:01:33;10.07;;;7.28;;
20910;SDS011;10615;42.702;23.314;2024-02-15T02:02:34;11.25;;;7.63;;
20910;SDS011;10615;42.702;23.314;2024-02-15T02:03:35;10.55;;;7.60;;
20910;SDS011;10615;42.702;23.314;2024-02-15T02:04:37;9.95;;;6.93;;
20910;SDS011;10615;42.702;23.314;2024-02-15T02:05:38;8.90;;;6.95;;
20910;SDS011;10615;42.702;23.314;2024-02-15T02:06:40;9.85;;;7.30;;
20910;SDS011;10615;42.702;23.314;2024-02-15T02:07:41;10.68;;;7.47;;
20910;SDS011;10615;42.702;23.314;2024-02-15T02:08:42;12.05;;;7.78;;
20910;SDS011;10615;42.702;23.314;2024-02-15T02:09:43;9.82;;;7.07;;
20910;SDS011;10615;42.702;23.314;2024-02-15T02:10:45;11.00;;;7.63;;
20910;SDS011;10615;42.702;23.314;2024-02-15T02:11:46;9.77;;;7.28;;
20910;SDS011;10615;42.702;23.314;2024-02-15T02:12:48;9.43;;;7.20;;
20910;SDS011;10615;42.702;23.314;2024-02-15T02:13:49;10.90;;;7.97;;
20910;SDS011;10615;42.702;23.314;2024-02-15T02:14:51;9.82;;;7.35;;
20910;SDS011;10615;42.702;23.314;2024-02-15T02:15:52;11.80;;;7.95;;
20910;SDS011;10615;42.702;23.314;2024-02-15T02:16:53;12.82;;;7.65;;
20910;SDS011;10615;42.702;23.314;2024-02-15T02:17:55;8.73;;;7.03;;
20910;SDS011;10615;42.702;23.314;2024-02-15T02:18:56;10.43;;;7.65;;
20910;SDS011;10615;42.702;23.314;2024-02-15T02:19:57;9.30;;;7.40;;
20910;SDS011;10615;42.702;23.314;2024-02-15T02:20:58;10.50;;;7.57;;
20910;SDS011;10615;42.702;23.314;2024-02-15T02:21:58;9.73;;;7.43;;
20910;SDS011;10615;42.702;23.314;2024-02-15T02:23:03;11.50;;;7.75;;
20910;SDS011;10615;42.702;23.314;2024-02-15T02:24:12;12.07;;;7.70;;
20910;SDS011;10615;42.702;23.314;2024-02-15T02:25:17;9.00;;;7.50;;
20910;SDS011;10615;42.702;23.314;2024-02-15T02:26:22;10.50;;;8.20;;
20910;SDS011;10615;42.702;23.314;2024-02-15T02:27:24;8.95;;;7.47;;
20910;SDS011;10615;42.702;23.314;2024-02-15T02:28:28;11.23;;;7.43;;
20910;SDS011;10615;42.702;23.314;2024-02-15T02:29:28;10.85;;;7.82;;
20910;SDS011;10615;42.702;23.314;2024-02-15T02:30:30;9.75;;;7.18;;
20910;SDS011;10615;42.702;23.314;2024-02-15T02:31:34;9.90;;;7.78;;
20910;SDS011;10615;42.702;23.314;2024-02-15T02:32:35;11.77;;;7.75;;
20910;SDS011;10615;42.702;23.314;2024-02-15T02:33:36;9.13;;;7.15;;
20910;SDS011;10615;42.702;23.314;2024-02-15T02:34:37;9.85;;;7.53;;
20910;SDS011;10615;42.702;23.314;2024-02-15T02:35:38;10.52;;;7.55;;
20910;SDS011;10615;42.702;23.314;2024-02-15T02:36:43;11.90;;;8.88;;
20910;SDS011;10615;42.702;23.314;2024-02-15T02:37:44;9.88;;;7.55;;
20910;SDS011;10615;42.702;23.314;2024-02-15T02:38:46;9.68;;;8.00;;
20910;SDS011;10615;42.702;23.314;2024-02-15T02:39:50;10.02;;;7.75;;
20910;SDS011;10615;42.702;23.314;2024-02-15T02:40:51;11.98;;;8.55;;
20910;SDS011;10615;42.702;23.314;2024-02-15T02:41:52;11.45;;;7.80;;
20910;SDS011;10615;42.702;23.314;2024-02-15T02:42:53;11.25;;;8.15;;
20910;SDS011;10615;42.702;23.314;2024-02-15T02:44:01;14.52;;;8.45;;
20910;SDS011;10615;42.702;23.314;2024-02-15T02:45:02;10.00;;;7.97;;
20910;SDS011;10615;42.702;23.314;2024-02-15T02:46:03;10.77;;;8.00;;
20910;SDS011;10615;42.702;23.314;2024-02-15T02:47:06;12.13;;;8.43;;
20910;SDS011;10615;42.702;23.314;2024-02-15T02:48:06;12.02;;;8.32;;
20910;SDS011;10615;42.702;23.314;2024-02-15T02:49:07;12.68;;;8.82;;
20910;SDS011;10615;42.702;23.314;2024-02-15T02:50:08;11.40;;;8.30;;
20910;SDS011;10615;42.702;23.314;2024-02-15T02:51:09;11.90;;;8.52;;
20910;SDS011;10615;42.702;23.314;2024-02-15T02:52:10;13.10;;;8.55;;
20910;SDS011;10615;42.702;23.314;2024-02-15T02:53:11;12.73;;;8.00;;
20910;SDS011;10615;42.702;23.314;2024-02-15T02:54:13;11.48;;;8.18;;
20910;SDS011;10615;42.702;23.314;2024-02-15T02:55:15;10.98;;;8.13;;
20910;SDS011;10615;42.702;23.314;2024-02-15T02:56:16;10.50;;;7.97;;
20910;SDS011;10615;42.702;23.314;2024-02-15T02:57:18;11.35;;;8.45;;
20910;SDS011;10615;42.702;23.314;2024-02-15T02:58:19;12.73;;;8.23;;
20910;SDS011;10615;42.702;23.314;2024-02-15T02:59:20;11.68;;;8.73;;
20910;SDS011;10615;42.702;23.314;2024-02-15T03:00:21;11.60;;;8.45;;
20910;SDS011;10615;42.702;23.314;2024-02-15T03:01:23;12.48;;;8.65;;
20910;SDS011;10615;42.702;23.314;2024-02-15T03:02:26;10.88;;;8.25;;
20910;SDS011;10615;42.702;23.314;2024-02-15T03:03:27;11.68;;;8.65;;
20910;SDS011;10615;42.702;23.314;2024-02-15T03:04:29;11.85;;;9.02;;
20910;SDS011;10615;42.702;23.314;2024-02-15T03:05:30;11.95;;;8.80;;
20910;SDS011;10615;42.702;23.314;2024-02-15T03:06:31;12.82;;;8.88;;
20910;SDS011;10615;42.702;23.314;2024-02-15T03:07:32;11.48;;;8.20;;
20910;SDS011;10615;42.702;23.314;2024-02-15T03:08:33;11.20;;;8.38;;
20910;SDS011;10615;42.702;23.314;2024-02-15T03:09:34;11.25;;;8.57;;
20910;SDS011;10615;42.702;23.314;2024-02-15T03:10:37;12.48;;;8.60;;
20910;SDS011;10615;42.702;23.314;2024-02-15T03:11:38;10.35;;;8.32;;
20910;SDS011;10615;42.702;23.314;2024-02-15T03:12:39;13.48;;;9.30;;
20910;SDS011;10615;42.702;23.314;2024-02-15T03:13:40;10.68;;;8.55;;
20910;SDS011;10615;42.702;23.314;2024-02-15T03:14:42;11.52;;;8.98;;
20910;SDS011;10615;42.702;23.314;2024-02-15T03:15:44;12.55;;;9.32;;
20910;SDS011;10615;42.702;23.314;2024-02-15T03:16:47;12.65;;;9.05;;
20910;SDS011;10615;42.702;23.314;2024-02-15T03:17:48;13.25;;;8.63;;
20910;SDS011;10615;42.702;23.314;2024-02-15T03:18:50;10.85;;;8.60;;
20910;SDS011;10615;42.702;23.314;2024-02-15T03:19:52;11.73;;;8.65;;
20910;SDS011;10615;42.702;23.314;2024-02-15T03:20:53;10.23;;;8.35;;
20910;SDS011;10615;42.702;23.314;2024-02-15T03:21:53;11.65;;;8.90;;
20910;SDS011;10615;42.702;23.314;2024-02-15T03:22:55;12.57;;;9.18;;
20910;SDS011;10615;42.702;23.314;2024-02-15T03:23:57;11.98;;;8.63;;
20910;SDS011;10615;42.702;23.314;2024-02-15T03:24:58;12.32;;;8.95;;
20910;SDS011;10615;42.702;23.314;2024-02-15T03:26:01;12.38;;;9.45;;
20910;SDS011;10615;42.702;23.314;2024-02-15T03:27:03;11.13;;;8.98;;
20910;SDS011;10615;42.702;23.314;2024-02-15T03:28:05;12.07;;;8.38;;
20910;SDS011;10615;42.702;23.314;2024-02-15T03:29:05;12.55;;;9.02;;
20910;SDS011;10615;42.702;23.314;2024-02-15T03:30:10;13.55;;;8.85;;
20910;SDS011;10615;42.702;23.314;2024-02-15T03:31:11;13.80;;;9.55;;
20910;SDS011;10615;42.702;23.314;2024-02-15T03:32:13;11.68;;;8.80;;
20910;SDS011;10615;42.702;23.314;2024-02-15T03:33:13;11.93;;;8.70;;
20910;SDS011;10615;42.702;23.314;2024-02-15T03:34:14;13.25;;;9.30;;
20910;SDS011;10615;42.702;23.314;2024-02-15T03:35:15;11.25;;;8.65;;
20910;SDS011;10615;42.702;23.314;2024-02-15T03:36:17;11.80;;;8.85;;
20910;SDS011;10615;42.702;23.314;2024-02-15T03:37:20;11.57;;;9.23;;
20910;SDS011;10615;42.702;23.314;2024-02-15T03:38:20;11.98;;;8.90;;
20910;SDS011;10615;42.702;23.314;2024-02-15T03:39:21;13.77;;;9.25;;
20910;SDS011;10615;42.702;23.314;2024-02-15T03:40:23;13.48;;;9.95;;
20910;SDS011;10615;42.702;23.314;2024-02-15T03:41:27;12.57;;;9.45;;
20910;SDS011;10615;42.702;23.314;2024-02-15T03:42:32;11.38;;;9.00;;
20910;SDS011;10615;42.702;23.314;2024-02-15T03:43:33;13.98;;;8.77;;
20910;SDS011;10615;42.702;23.314;2024-02-15T03:44:34;12.55;;;9.45;;
20910;SDS011;10615;42.702;23.314;2024-02-15T03:45:35;13.00;;;9.40;;
20910;SDS011;10615;42.702;23.314;2024-02-15T03:46:36;13.82;;;9.20;;
20910;SDS011;10615;42.702;23.314;2024-02-15T03:47:37;12.02;;;9.50;;
20910;SDS011;10615;42.702;23.314;2024-02-15T03:48:39;11.65;;;9.43;;
20910;SDS011;10615;42.702;23.314;2024-02-15T03:49:44;14.70;;;10.40;;
20910;SDS011;10615;42.702;23.314;2024-02-15T03:50:44;13.15;;;9.70;;
20910;SDS011;10615;42.702;23.314;2024-02-15T03:51:45;12.60;;;9.15;;
20910;SDS011;10615;42.702;23.314;2024-02-15T03:52:46;10.90;;;9.02;;
20910;SDS011;10615;42.702;23.314;2024-02-15T03:53:47;12.20;;;9.05;;
20910;SDS011;10615;42.702;23.314;2024-02-15T03:54:48;11.07;;;9.20;;
20910;SDS011;10615;42.702;23.314;2024-02-15T03:55:49;13.07;;;9.60;;
20910;SDS011;10615;42.702;23.314;2024-02-15T03:56:53;11.70;;;8.82;;
20910;SDS011;10615;42.702;23.314;2024-02-15T03:57:54;11.88;;;9.60;;
20910;SDS011;10615;42.702;23.314;2024-02-15T03:58:56;13.13;;;9.38;;
20910;SDS011;10615;42.702;23.314;2024-02-15T03:59:57;15.23;;;9.32;;
20910;SDS011;10615;42.702;23.314;2024-02-15T04:00:58;13.38;;;9.80;;
20910;SDS011;10615;42.702;23.314;2024-02-15T04:01:59;13.02;;;9.30;;
20910;SDS011;10615;42.702;23.314;2024-02-15T04:03:03;12.55;;;9.23;;
20910;SDS011;10615;42.702;23.314;2024-02-15T04:04:05;12.50;;;9.25;;
20910;SDS011;10615;42.702;23.314;2024-02-15T04:05:06;10.80;;;9.25;;
20910;SDS011;10615;42.702;23.314;2024-02-15T04:06:09;12.95;;;9.43;;
20910;SDS011;10615;42.702;23.314;2024-02-15T04:07:11;13.00;;;9.50;;
20910;SDS011;10615;42.702;23.314;2024-02-15T04:08:12;12.32;;;9.63;;
20910;SDS011;10615;42.702;23.314;2024-02-15T04:09:12;11.80;;;9.27;;
20910;SDS011;10615;42.702;23.314;2024-02-15T04:10:13;12.55;;;9.43;;
20910;SDS011;10615;42.702;23.314;2024-02-15T04:11:14;14.95;;;9.27;;
20910;SDS011;10615;42.702;23.314;2024-02-15T04:12:16;13.10;;;9.43;;
20910;SDS011;10615;42.702;23.314;2024-02-15T04:13:17;15.13;;;9.30;;
20910;SDS011;10615;42.702;23.314;2024-02-15T04:14:18;12.68;;;9.25;;
20910;SDS011;10615;42.702;23.314;2024-02-15T04:15:19;13.15;;;9.35;;
20910;SDS011;10615;42.702;23.314;2024-02-15T04:16:20;11.85;;;8.95;;
20910;SDS011;10615;42.702;23.314;2024-02-15T04:17:21;13.75;;;9.60;;
20910;SDS011;10615;42.702;23.314;2024-02-15T04:18:22;14.52;;;9.43;;
20910;SDS011;10615;42.702;23.314;2024-02-15T04:19:23;14.32;;;9.90;;
20910;SDS011;10615;42.702;23.314;2024-02-15T04:20:24;13.45;;;9.57;;
20910;SDS011;10615;42.702;23.314;2024-02-15T04:21:25;11.45;;;9.18;;
20910;SDS011;10615;42.702;23.314;2024-02-15T04:22:27;13.27;;;9.57;;
20910;SDS011;10615;42.702;23.314;2024-02-15T04:23:28;12.60;;;8.95;;
20910;SDS011;10615;42.702;23.314;2024-02-15T04:24:29;12.25;;;9.18;;
20910;SDS011;10615;42.702;23.314;2024-02-15T04:25:31;13.85;;;9.38;;
20910;SDS011;10615;42.702;23.314;2024-02-15T04:26:33;13.73;;;9.18;;
20910;SDS011;10615;42.702;23.314;2024-02-15T04:27:36;12.70;;;9.40;;
20910;SDS011;10615;42.702;23.314;2024-02-15T04:28:36;12.48;;;9.05;;
20910;SDS011;10615;42.702;23.314;2024-02-15T04:29:37;13.32;;;8.75;;
20910;SDS011;10615;42.702;23.314;2024-02-15T04:30:44;11.50;;;9.10;;
20910;SDS011;10615;42.702;23.314;2024-02-15T04:31:46;13.55;;;9.45;;
20910;SDS011;10615;42.702;23.314;2024-02-15T04:32:50;13.63;;;9.48;;
20910;SDS011;10615;42.702;23.314;2024-02-15T04:33:55;10.35;;;8.30;;
20910;SDS011;10615;42.702;23.314;2024-02-15T04:34:56;13.20;;;9.52;;
20910;SDS011;10615;42.702;23.314;2024-02-15T04:35:57;14.23;;;9.55;;
20910;SDS011;10615;42.702;23.314;2024-02-15T04:36:58;13.38;;;9.40;;
20910;SDS011;10615;42.702;23.314;2024-02-15T04:37:59;12.65;;;8.98;;
20910;SDS011;10615;42.702;23.314;2024-02-15T04:39:00;12.30;;;9.63;;
20910;SDS011;10615;42.702;23.314;2024-02-15T04:40:03;12.18;;;9.27;;
20910;SDS011;10615;42.702;23.314;2024-02-15T04:41:10;12.90;;;9.50;;
20910;SDS011;10615;42.702;23.314;2024-02-15T04:42:10;12.70;;;9.23;;
20910;SDS011;10615;42.702;23.314;2024-02-15T04:43:11;10.57;;;8.60;;
20910;SDS011;10615;42.702;23.314;2024-02-15T04:44:15;14.13;;;9.05;;
20910;SDS011;10615;42.702;23.314;2024-02-15T04:45:16;17.10;;;9.48;;
20910;SDS011;10615;42.702;23.314;2024-02-15T04:46:19;14.80;;;9.07;;
20910;SDS011;10615;42.702;23.314;2024-02-15T04:47:22;15.65;;;9.25;;
20910;SDS011;10615;42.702;23.314;2024-02-15T04:48:23;14.82;;;9.18;;
20910;SDS011;10615;42.702;23.314;2024-02-15T04:49:24;13.10;;;9.48;;
20910;SDS011;10615;42.702;23.314;2024-02-15T04:50:26;13.65;;;9.32;;
20910;SDS011;10615;42.702;23.314;2024-02-15T04:51:26;12.15;;;9.40;;
20910;SDS011;10615;42.702;23.314;2024-02-15T04:52:27;14.35;;;10.00;;
20910;SDS011;10615;42.702;23.314;2024-02-15T04:53:29;16.52;;;10.27;;
20910;SDS011;10615;42.702;23.314;2024-02-15T04:54:30;14.00;;;9.60;;
20910;SDS011;10615;42.702;23.314;2024-02-15T04:55:32;13.25;;;9.65;;
20910;SDS011;10615;42.702;23.314;2024-02-15T04:56:33;12.98;;;9.70;;
20910;SDS011;10615;42.702;23.314;2024-02-15T04:57:36;14.70;;;9.45;;
20910;SDS011;10615;42.702;23.314;2024-02-15T04:58:37;14.20;;;10.30;;
20910;SDS011;10615;42.702;23.314;2024-02-15T04:59:45;13.45;;;10.15;;
20910;SDS011;10615;42.702;23.314;2024-02-15T05:00:47;13.15;;;9.57;;
20910;SDS011;10615;42.702;23.314;2024-02-15T05:01:52;16.05;;;9.57;;
20910;SDS011;10615;42.702;23.314;2024-02-15T05:02:53;16.08;;;9.60;;
20910;SDS011;10615;42.702;23.314;2024-02-15T05:03:54;12.88;;;9.43;;
20910;SDS011;10615;42.702;23.314;2024-02-15T05:04:55;15.73;;;10.23;;
20910;SDS011;10615;42.702;23.314;2024-02-15T05:05:56;13.43;;;10.10;;
20910;SDS011;10615;42.702;23.314;2024-02-15T05:06:57;13.93;;;9.85;;
20910;SDS011;10615;42.702;23.314;2024-02-15T05:07:58;14.60;;;10.02;;
20910;SDS011;10615;42.702;23.314;2024-02-15T05:09:01;14.45;;;9.40;;
20910;SDS011;10615;42.702;23.314;2024-02-15T05:10:07;13.80;;;9.00;;
20910;SDS011;10615;42.702;23.314;2024-02-15T05:11:10;12.00;;;9.25;;
20910;SDS011;10615;42.702;23.314;2024-02-15T05:12:23;16.75;;;10.40;;
20910;SDS011;10615;42.702;23.314;2024-02-15T05:13:24;14.27;;;9.18;;
20910;SDS011;10615;42.702;23.314;2024-02-15T05:14:25;13.75;;;9.77;;
20910;SDS011;10615;42.702;23.314;2024-02-15T05:15:26;15.00;;;9.32;;
20910;SDS011;10615;42.702;23.314;2024-02-15T05:16:27;14.15;;;9.70;;
20910;SDS011;10615;42.702;23.314;2024-02-15T05:17:28;12.65;;;8.85;;
20910;SDS011;10615;42.702;23.314;2024-02-15T05:18:29;13.05;;;9.48;;
20910;SDS011;10615;42.702;23.314;2024-02-15T05:19:30;16.35;;;9.93;;
20910;SDS011;10615;42.702;23.314;2024-02-15T05:20:31;12.27;;;9.30;;
20910;SDS011;10615;42.702;23.314;2024-02-15T05:21:32;15.02;;;9.32;;
20910;SDS011;10615;42.702;23.314;2024-02-15T05:22:33;11.80;;;9.23;;
20910;SDS011;10615;42.702;23.314;2024-02-15T05:23:36;17.77;;;9.68;;
20910;SDS011;10615;42.702;23.314;2024-02-15T05:24:37;15.93;;;9.45;;
20910;SDS011;10615;42.702;23.314;2024-02-15T05:25:41;15.13;;;9.32;;
20910;SDS011;10615;42.702;23.314;2024-02-15T05:26:43;17.02;;;10.63;;
20910;SDS011;10615;42.702;23.314;2024-02-15T05:27:48;14.95;;;10.13;;
20910;SDS011;10615;42.702;23.314;2024-02-15T05:28:49;12.60;;;9.32;;
20910;SDS011;10615;42.702;23.314;2024-02-15T05:29:50;15.05;;;10.23;;
20910;SDS011;10615;42.702;23.314;2024-02-15T05:32:12;16.35;;;10.75;;
20910;SDS011;10615;42.702;23.314;2024-02-15T05:33:15;15.70;;;10.02;;
20910;SDS011;10615;42.702;23.314;2024-02-15T05:34:15;12.88;;;8.82;;
20910;SDS011;10615;42.702;23.314;2024-02-15T05:35:16;14.60;;;9.82;;
20910;SDS011;10615;42.702;23.314;2024-02-15T05:36:18;16.35;;;9.60;;
20910;SDS011;10615;42.702;23.314;2024-02-15T05:37:22;16.52;;;9.65;;
20910;SDS011;10615;42.702;23.314;2024-02-15T05:38:23;14.95;;;9.73;;
20910;SDS011;10615;42.702;23.314;2024-02-15T05:39:24;15.43;;;9.95;;
20910;SDS011;10615;42.702;23.314;2024-02-15T05:40:25;13.93;;;9.05;;
20910;SDS011;10615;42.702;23.314;2024-02-15T05:41:26;16.17;;;9.60;;
20910;SDS011;10615;42.702;23.314;2024-02-15T05:42:26;16.58;;;9.68;;
20910;SDS011;10615;42.702;23.314;2024-02-15T05:43:27;19.30;;;10.88;;
20910;SDS011;10615;42.702;23.314;2024-02-15T05:44:28;14.98;;;9.82;;
20910;SDS011;10615;42.702;23.314;2024-02-15T05:45:29;14.43;;;9.57;;
20910;SDS011;10615;42.702;23.314;2024-02-15T05:46:34;14.75;;;9.23;;
20910;SDS011;10615;42.702;23.314;2024-02-15T05:47:37;12.85;;;9.15;;
20910;SDS011;10615;42.702;23.314;2024-02-15T05:48:39;17.02;;;9.98;;
20910;SDS011;10615;42.702;23.314;2024-02-15T05:49:40;17.27;;;9.93;;
20910;SDS011;10615;42.702;23.314;2024-02-15T05:50:41;14.43;;;9.38;;
20910;SDS011;10615;42.702;23.314;2024-02-15T05:51:42;13.18;;;9.25;;
20910;SDS011;10615;42.702;23.314;2024-02-15T05:52:43;14.98;;;9.55;;
20910;SDS011;10615;42.702;23.314;2024-02-15T05:53:44;12.75;;;9.40;;
20910;SDS011;10615;42.702;23.314;2024-02-15T05:54:45;15.27;;;9.85;;
20910;SDS011;10615;42.702;23.314;2024-02-15T05:55:46;16.15;;;9.65;;
20910;SDS011;10615;42.702;23.314;2024-02-15T05:56:49;13.73;;;9.38;;
20910;SDS011;10615;42.702;23.314;2024-02-15T05:57:52;14.57;;;9.52;;
20910;SDS011;10615;42.702;23.314;2024-02-15T05:58:53;13.18;;;9.07;;
20910;SDS011;10615;42.702;23.314;2024-02-15T05:59:54;14.80;;;9.48;;
20910;SDS011;10615;42.702;23.314;2024-02-15T06:00:54;13.60;;;9.65;;
20910;SDS011;10615;42.702;23.314;2024-02-15T06:02:00;18.20;;;11.27;;
20910;SDS011;10615;42.702;23.314;2024-02-15T06:03:03;16.70;;;9.25;;